sensor_id;sensor_type;location;lat;lon;timestamp;pressure;altitude;pressure_sealevel;temperature;humidity
51781;BME280;37844;57.126;24.288;2023-03-25T00:01:33;99462.97;;;6.63;100.00
51781;BME280;37844;57.126;24.288;2023-03-25T00:04:17;99458.69;;;6.57;100.00
51781;BME280;37844;57.126;24.288;2023-03-25T00:07:01;99450.97;;;6.53;100.00
51781;BME280;37844;57.126;24.288;2023-03-25T00:09:46;99454.44;;;6.61;100.00
51781;BME280;37844;57.126;24.288;2023-03-25T00:12:30;99461.28;;;6.64;100.00
51781;BME280;37844;57.126;24.288;2023-03-25T00:15:14;99462.09;;;6.59;100.00
51781;BME280;37844;57.126;24.288;2023-03-25T00:17:59;99461.19;;;6.54;100.00
51781;BME280;37844;57.126;24.288;2023-03-25T00:20:44;99453.44;;;6.44;100.00
51781;BME280;37844;57.126;24.288;2023-03-25T00:23:32;99453.44;;;6.44;100.00
51781;BME280;37844;57.126;24.288;2023-03-25T00:26:16;99455.09;;;6.39;100.00
51781;BME280;37844;57.126;24.288;2023-03-25T00:28:59;99464.50;;;6.41;100.00
51781;BME280;37844;57.126;24.288;2023-03-25T00:31:43;99455.97;;;6.39;100.00
51781;BME280;37844;57.126;24.288;2023-03-25T00:34:27;99464.44;;;6.35;100.00
51781;BME280;37844;57.126;24.288;2023-03-25T00:37:12;99469.53;;;6.32;100.00
51781;BME280;37844;57.126;24.288;2023-03-25T00:39:56;99464.34;;;6.26;100.00
51781;BME280;37844;57.126;24.288;2023-03-25T00:42:40;99460.88;;;6.21;100.00
51781;BME280;37844;57.126;24.288;2023-03-25T00:45:27;99470.31;;;6.22;100.00
51781;BME280;37844;57.126;24.288;2023-03-25T00:48:11;99459.13;;;6.16;100.00
51781;BME280;37844;57.126;24.288;2023-03-25T00:50:55;99462.53;;;6.12;100.00
51781;BME280;37844;57.126;24.288;2023-03-25T00:53:39;99461.69;;;6.15;100.00
51781;BME280;37844;57.126;24.288;2023-03-25T00:56:23;99468.47;;;6.10;100.00
51781;BME280;37844;57.126;24.288;2023-03-25T00:59:07;99471.06;;;6.16;100.00
51781;BME280;37844;57.126;24.288;2023-03-25T01:01:51;99459.13;;;6.13;100.00
51781;BME280;37844;57.126;24.288;2023-03-25T01:04:35;99459.91;;;6.06;100.00
51781;BME280;37844;57.126;24.288;2023-03-25T01:07:21;99466.69;;;6.04;100.00
51781;BME280;37844;57.126;24.288;2023-03-25T01:10:06;99461.59;;;6.03;100.00
51781;BME280;37844;57.126;24.288;2023-03-25T01:12:50;99470.06;;;6.00;100.00
51781;BME280;37844;57.126;24.288;2023-03-25T01:15:34;99463.25;;;6.01;100.00
51781;BME280;37844;57.126;24.288;2023-03-25T01:18:18;99469.22;;;6.01;100.00
51781;BME280;37844;57.126;24.288;2023-03-25T01:21:03;99472.63;;;5.99;100.00
51781;BME280;37844;57.126;24.288;2023-03-25T01:23:47;99463.97;;;5.92;100.00
51781;BME280;37844;57.126;24.288;2023-03-25T01:26:31;99462.28;;;5.92;100.00
51781;BME280;37844;57.126;24.288;2023-03-25T01:29:16;99461.34;;;5.86;100.00
51781;BME280;37844;57.126;24.288;2023-03-25T01:32:00;99466.44;;;5.86;100.00
51781;BME280;37844;57.126;24.288;2023-03-25T01:34:44;99456.25;;;5.87;100.00
51781;BME280;37844;57.126;24.288;2023-03-25T01:37:29;99455.34;;;5.82;100.00
51781;BME280;37844;57.126;24.288;2023-03-25T01:40:17;99455.41;;;5.87;100.00
51781;BME280;37844;57.126;24.288;2023-03-25T01:43:02;99447.69;;;5.85;100.00
51781;BME280;37844;57.126;24.288;2023-03-25T01:45:46;99445.16;;;5.87;100.00
51781;BME280;37844;57.126;24.288;2023-03-25T01:48:34;99442.63;;;5.87;100.00
51781;BME280;37844;57.126;24.288;2023-03-25T01:51:26;99448.56;;;5.86;100.00
51781;BME280;37844;57.126;24.288;2023-03-25T01:54:12;99441.72;;;5.83;100.00
51781;BME280;37844;57.126;24.288;2023-03-25T01:57:00;99441.72;;;5.82;100.00
51781;BME280;37844;57.126;24.288;2023-03-25T01:59:44;99440.88;;;5.84;100.00
51781;BME280;37844;57.126;24.288;2023-03-25T02:02:29;99439.09;;;5.77;100.00
51781;BME280;37844;57.126;24.288;2023-03-25T02:05:20;99432.25;;;5.76;100.00
51781;BME280;37844;57.126;24.288;2023-03-25T02:08:07;99435.69;;;5.78;100.00
51781;BME280;37844;57.126;24.288;2023-03-25T02:10:52;99426.31;;;5.77;100.00
51781;BME280;37844;57.126;24.288;2023-03-25T02:13:37;99428.06;;;5.83;100.00
51781;BME280;37844;57.126;24.288;2023-03-25T02:39:45;99435.69;;;5.77;100.00
51781;BME280;37844;57.126;24.288;2023-03-25T02:42:34;99430.53;;;5.73;100.00
51781;BME280;37844;57.126;24.288;2023-03-25T02:48:16;99430.50;;;5.70;100.00
51781;BME280;37844;57.126;24.288;2023-03-25T02:51:05;99427.09;;;5.70;100.00
51781;BME280;37844;57.126;24.288;2023-03-25T02:53:52;99423.66;;;5.68;100.00
51781;BME280;37844;57.126;24.288;2023-03-25T02:56:39;99421.94;;;5.68;100.00
51781;BME280;37844;57.126;24.288;2023-03-25T02:59:24;99426.13;;;5.62;100.00
51781;BME280;37844;57.126;24.288;2023-03-25T03:02:15;99416.69;;;5.56;100.00
51781;BME280;37844;57.126;24.288;2023-03-25T03:05:00;99417.59;;;5.61;100.00
51781;BME280;37844;57.126;24.288;2023-03-25T03:07:43;99409.09;;;5.62;100.00
51781;BME280;37844;57.126;24.288;2023-03-25T03:10:37;99412.47;;;5.60;100.00
51781;BME280;37844;57.126;24.288;2023-03-25T03:13:38;99413.22;;;5.52;100.00
51781;BME280;37844;57.126;24.288;2023-03-25T03:19:31;99414.88;;;5.47;100.00
51781;BME280;37844;57.126;24.288;2023-03-25T03:28:08;99426.00;;;5.49;100.00
51781;BME280;37844;57.126;24.288;2023-03-25T03:33:44;99431.00;;;5.43;100.00
51781;BME280;37844;57.126;24.288;2023-03-25T03:36:35;99430.97;;;5.40;100.00
51781;BME280;37844;57.126;24.288;2023-03-25T03:39:26;99432.66;;;5.37;100.00
51781;BME280;37844;57.126;24.288;2023-03-25T03:42:13;99430.06;;;5.35;100.00
51781;BME280;37844;57.126;24.288;2023-03-25T03:45:03;99425.00;;;5.37;100.00
51781;BME280;37844;57.126;24.288;2023-03-25T03:47:50;99432.66;;;5.37;100.00
51781;BME280;37844;57.126;24.288;2023-03-25T03:50:38;99437.75;;;5.38;100.00
51781;BME280;37844;57.126;24.288;2023-03-25T03:53:37;99429.25;;;5.38;100.00
51781;BME280;37844;57.126;24.288;2023-03-25T03:56:24;99434.28;;;5.33;100.00
51781;BME280;37844;57.126;24.288;2023-03-25T03:59:10;99438.53;;;5.31;100.00
51781;BME280;37844;57.126;24.288;2023-03-25T04:01:58;99442.81;;;5.34;100.00
51781;BME280;37844;57.126;24.288;2023-03-25T04:04:43;99437.66;;;5.27;100.00
51781;BME280;37844;57.126;24.288;2023-03-25T04:07:32;99438.56;;;5.32;100.00
51781;BME280;37844;57.126;24.288;2023-03-25T04:10:38;99442.00;;;5.35;100.00
51781;BME280;37844;57.126;24.288;2023-03-25T04:13:25;99444.53;;;5.36;100.00
51781;BME280;37844;57.126;24.288;2023-03-25T04:16:11;99442.81;;;5.34;100.00
51781;BME280;37844;57.126;24.288;2023-03-25T04:18:55;99451.38;;;5.34;100.00
51781;BME280;37844;57.126;24.288;2023-03-25T04:21:41;99450.53;;;5.37;100.00
51781;BME280;37844;57.126;24.288;2023-03-25T04:24:25;99445.44;;;5.38;100.00
51781;BME280;37844;57.126;24.288;2023-03-25T04:27:09;99461.53;;;5.29;100.00
51781;BME280;37844;57.126;24.288;2023-03-25T04:29:56;99459.94;;;5.39;100.00
51781;BME280;37844;57.126;24.288;2023-03-25T04:32:40;99460.88;;;5.47;100.00
51781;BME280;37844;57.126;24.288;2023-03-25T04:35:25;99466.78;;;5.42;100.00
51781;BME280;37844;57.126;24.288;2023-03-25T04:38:08;99468.59;;;5.49;100.00
51781;BME280;37844;57.126;24.288;2023-03-25T04:40:54;99475.34;;;5.44;100.00
51781;BME280;37844;57.126;24.288;2023-03-25T04:43:38;99481.25;;;5.43;100.00
51781;BME280;37844;57.126;24.288;2023-03-25T04:46:22;99490.69;;;5.47;100.00
51781;BME280;37844;57.126;24.288;2023-03-25T04:49:06;99499.25;;;5.49;100.00
51781;BME280;37844;57.126;24.288;2023-03-25T04:51:56;99504.41;;;5.52;100.00
51781;BME280;37844;57.126;24.288;2023-03-25T04:54:41;99515.56;;;5.59;100.00
51781;BME280;37844;57.126;24.288;2023-03-25T04:57:24;99513.97;;;5.68;100.00
51781;BME280;37844;57.126;24.288;2023-03-25T05:00:09;99520.06;;;5.77;100.00
51781;BME280;37844;57.126;24.288;2023-03-25T05:02:54;99520.09;;;5.81;100.00
51781;BME280;37844;57.126;24.288;2023-03-25T05:05:38;99530.38;;;5.84;100.00
51781;BME280;37844;57.126;24.288;2023-03-25T05:08:22;99530.66;;;6.03;100.00
51781;BME280;37844;57.126;24.288;2023-03-25T05:11:06;99535.88;;;6.13;100.00
51781;BME280;37844;57.126;24.288;2023-03-25T05:13:50;99542.13;;;6.39;100.00
51781;BME280;37844;57.126;24.288;2023-03-25T05:16:33;99540.59;;;6.57;100.00
51781;BME280;37844;57.126;24.288;2023-03-25T05:19:18;99533.72;;;6.52;100.00
51781;BME280;37844;57.126;24.288;2023-03-25T05:22:02;99537.78;;;6.31;100.00
51781;BME280;37844;57.126;24.288;2023-03-25T05:24:47;99543.69;;;6.24;100.00
51781;BME280;37844;57.126;24.288;2023-03-25T05:27:31;99554.75;;;6.26;100.00
51781;BME280;37844;57.126;24.288;2023-03-25T05:30:15;99562.41;;;6.23;100.00
51781;BME280;37844;57.126;24.288;2023-03-25T05:32:59;99553.81;;;6.15;100.00
51781;BME280;37844;57.126;24.288;2023-03-25T05:35:44;99558.03;;;6.13;100.00
51781;BME280;37844;57.126;24.288;2023-03-25T05:38:28;99556.38;;;6.16;100.00
51781;BME280;37844;57.126;24.288;2023-03-25T05:41:13;99561.53;;;6.21;100.00
51781;BME280;37844;57.126;24.288;2023-03-25T05:44:04;99559.03;;;6.26;100.00
51781;BME280;37844;57.126;24.288;2023-03-25T05:46:48;99552.25;;;6.29;100.00
51781;BME280;37844;57.126;24.288;2023-03-25T05:49:32;99564.19;;;6.30;100.00
51781;BME280;37844;57.126;24.288;2023-03-25T05:52:16;99567.59;;;6.28;100.00
51781;BME280;37844;57.126;24.288;2023-03-25T05:55:01;99575.34;;;6.34;100.00
51781;BME280;37844;57.126;24.288;2023-03-25T05:57:46;99573.72;;;6.42;100.00
51781;BME280;37844;57.126;24.288;2023-03-25T06:00:30;99583.97;;;6.44;100.00
51781;BME280;37844;57.126;24.288;2023-03-25T06:03:15;99582.34;;;6.50;100.00
51781;BME280;37844;57.126;24.288;2023-03-25T06:06:01;99580.69;;;6.57;100.00
51781;BME280;37844;57.126;24.288;2023-03-25T06:08:48;99583.28;;;6.58;100.00
51781;BME280;37844;57.126;24.288;2023-03-25T06:11:33;99593.59;;;6.65;100.00
51781;BME280;37844;57.126;24.288;2023-03-25T06:14:23;99598.69;;;6.63;100.00
51781;BME280;37844;57.126;24.288;2023-03-25T06:17:08;99595.34;;;6.70;100.00
51781;BME280;37844;57.126;24.288;2023-03-25T06:19:53;99599.69;;;6.77;100.00
51781;BME280;37844;57.126;24.288;2023-03-25T06:22:38;99599.66;;;6.76;100.00
51781;BME280;37844;57.126;24.288;2023-03-25T06:25:22;99604.00;;;6.82;100.00
51781;BME280;37844;57.126;24.288;2023-03-25T06:28:06;99611.69;;;6.85;100.00
51781;BME280;37844;57.126;24.288;2023-03-25T06:30:50;99605.69;;;6.83;100.00
51781;BME280;37844;57.126;24.288;2023-03-25T06:33:33;99602.31;;;6.85;100.00
51781;BME280;37844;57.126;24.288;2023-03-25T06:36:18;99610.97;;;6.96;100.00
51781;BME280;37844;57.126;24.288;2023-03-25T06:39:02;99611.75;;;6.89;100.00
51781;BME280;37844;57.126;24.288;2023-03-25T06:41:48;99617.72;;;6.88;100.00
51781;BME280;37844;57.126;24.288;2023-03-25T06:44:32;99619.47;;;6.91;100.00
51781;BME280;37844;57.126;24.288;2023-03-25T06:47:16;99626.16;;;6.79;100.00
51781;BME280;37844;57.126;24.288;2023-03-25T06:50:00;99622.81;;;6.84;100.00
51781;BME280;37844;57.126;24.288;2023-03-25T06:52:44;99633.16;;;6.93;100.00
51781;BME280;37844;57.126;24.288;2023-03-25T06:55:28;99636.66;;;7.03;100.00
51781;BME280;37844;57.126;24.288;2023-03-25T06:58:12;99633.16;;;6.96;100.00
51781;BME280;37844;57.126;24.288;2023-03-25T07:00:57;99635.84;;;7.08;100.00
51781;BME280;37844;57.126;24.288;2023-03-25T07:03:45;99645.38;;;7.21;100.00
51781;BME280;37844;57.126;24.288;2023-03-25T07:06:29;99644.56;;;7.29;100.00
51781;BME280;37844;57.126;24.288;2023-03-25T07:09:13;99649.75;;;7.38;100.00
51781;BME280;37844;57.126;24.288;2023-03-25T07:11:58;99648.91;;;7.36;100.00
51781;BME280;37844;57.126;24.288;2023-03-25T07:14:42;99667.69;;;7.36;100.00
51781;BME280;37844;57.126;24.288;2023-03-25T07:17:27;99671.19;;;7.43;100.00
51781;BME280;37844;57.126;24.288;2023-03-25T07:20:11;99668.53;;;7.34;100.00
51781;BME280;37844;57.126;24.288;2023-03-25T07:22:55;99672.84;;;7.42;100.00
51781;BME280;37844;57.126;24.288;2023-03-25T07:25:39;99673.78;;;7.49;100.00
51781;BME280;37844;57.126;24.288;2023-03-25T07:28:23;99667.78;;;7.49;100.00
51781;BME280;37844;57.126;24.288;2023-03-25T07:31:10;99674.66;;;7.53;100.00
51781;BME280;37844;57.126;24.288;2023-03-25T07:33:55;99677.22;;;7.54;100.00
51781;BME280;37844;57.126;24.288;2023-03-25T07:36:39;99687.53;;;7.59;100.00
51781;BME280;37844;57.126;24.288;2023-03-25T07:39:23;99687.66;;;7.71;100.00
51781;BME280;37844;57.126;24.288;2023-03-25T07:42:07;99697.91;;;7.74;100.00
51781;BME280;37844;57.126;24.288;2023-03-25T07:44:51;99697.09;;;7.80;100.00
51781;BME280;37844;57.126;24.288;2023-03-25T07:47:35;99697.19;;;7.91;100.00
51781;BME280;37844;57.126;24.288;2023-03-25T07:50:20;99694.66;;;7.95;100.00
51781;BME280;37844;57.126;24.288;2023-03-25T07:53:05;99704.94;;;8.00;100.00
51781;BME280;37844;57.126;24.288;2023-03-25T07:55:49;99711.84;;;8.10;100.00
51781;BME280;37844;57.126;24.288;2023-03-25T07:58:33;99710.22;;;8.21;100.00
51781;BME280;37844;57.126;24.288;2023-03-25T08:01:17;99705.09;;;8.24;100.00
51781;BME280;37844;57.126;24.288;2023-03-25T08:04:01;99712.84;;;8.37;100.00
51781;BME280;37844;57.126;24.288;2023-03-25T08:06:45;99705.22;;;8.49;100.00
51781;BME280;37844;57.126;24.288;2023-03-25T08:09:29;99712.13;;;8.58;100.00
51781;BME280;37844;57.126;24.288;2023-03-25T08:12:13;99675.28;;;8.48;100.00
51781;BME280;37844;57.126;24.288;2023-03-25T08:14:57;99720.72;;;8.67;100.00
51781;BME280;37844;57.126;24.288;2023-03-25T08:17:42;99725.03;;;8.75;100.00
51781;BME280;37844;57.126;24.288;2023-03-25T08:20:26;99733.63;;;8.84;100.00
51781;BME280;37844;57.126;24.288;2023-03-25T08:23:10;99737.09;;;8.88;100.00
51781;BME280;37844;57.126;24.288;2023-03-25T08:25:55;99746.53;;;8.94;100.00
51781;BME280;37844;57.126;24.288;2023-03-25T08:28:39;99746.47;;;8.84;100.00
51781;BME280;37844;57.126;24.288;2023-03-25T08:31:23;99749.09;;;8.90;100.00
51781;BME280;37844;57.126;24.288;2023-03-25T08:34:07;99757.66;;;8.96;100.00
51781;BME280;37844;57.126;24.288;2023-03-25T08:36:51;99763.69;;;9.02;100.00
51781;BME280;37844;57.126;24.288;2023-03-25T08:39:35;99765.41;;;9.05;100.00
51781;BME280;37844;57.126;24.288;2023-03-25T08:42:22;99769.72;;;9.04;100.00
51781;BME280;37844;57.126;24.288;2023-03-25T08:45:06;99764.59;;;9.20;100.00
51781;BME280;37844;57.126;24.288;2023-03-25T08:47:51;99776.63;;;9.31;100.00
51781;BME280;37844;57.126;24.288;2023-03-25T08:50:35;99776.63;;;9.36;100.00
51781;BME280;37844;57.126;24.288;2023-03-25T08:53:19;99790.34;;;9.30;100.00
51781;BME280;37844;57.126;24.288;2023-03-25T08:56:03;99790.34;;;9.32;100.00
51781;BME280;37844;57.126;24.288;2023-03-25T08:58:46;99792.91;;;9.37;100.00
51781;BME280;37844;57.126;24.288;2023-03-25T09:01:31;99793.81;;;9.40;100.00
51781;BME280;37844;57.126;24.288;2023-03-25T09:04:15;99803.22;;;9.46;100.00
51781;BME280;37844;57.126;24.288;2023-03-25T09:06:59;99799.81;;;9.48;100.00
51781;BME280;37844;57.126;24.288;2023-03-25T09:09:43;99804.97;;;9.50;100.00
51781;BME280;37844;57.126;24.288;2023-03-25T09:12:27;99806.69;;;9.57;100.00
51781;BME280;37844;57.126;24.288;2023-03-25T09:15:11;99816.16;;;9.66;100.00
51781;BME280;37844;57.126;24.288;2023-03-25T09:18:01;99811.84;;;9.72;100.00
51781;BME280;37844;57.126;24.288;2023-03-25T09:20:46;99810.16;;;9.71;100.00
51781;BME280;37844;57.126;24.288;2023-03-25T09:23:30;99815.28;;;9.79;100.00
51781;BME280;37844;57.126;24.288;2023-03-25T09:26:14;99819.59;;;9.80;100.00
51781;BME280;37844;57.126;24.288;2023-03-25T09:28:58;99824.75;;;9.83;100.00
51781;BME280;37844;57.126;24.288;2023-03-25T09:31:43;99818.72;;;9.84;100.00
51781;BME280;37844;57.126;24.288;2023-03-25T09:34:27;99827.31;;;9.80;100.00
51781;BME280;37844;57.126;24.288;2023-03-25T09:37:11;99827.31;;;9.80;100.00
51781;BME280;37844;57.126;24.288;2023-03-25T09:39:55;99829.91;;;9.91;100.00
51781;BME280;37844;57.126;24.288;2023-03-25T09:51:05;99834.22;;;10.21;100.00
51781;BME280;37844;57.126;24.288;2023-03-25T09:56:34;99829.91;;;10.43;100.00
51781;BME280;37844;57.126;24.288;2023-03-25T09:59:21;99834.22;;;10.38;100.00
51781;BME280;37844;57.126;24.288;2023-03-25T10:05:24;99823.84;;;10.73;100.00
51781;BME280;37844;57.126;24.288;2023-03-25T10:08:28;99827.25;;;10.88;100.00
51781;BME280;37844;57.126;24.288;2023-03-25T10:14:28;99831.56;;;10.81;100.00
51781;BME280;37844;57.126;24.288;2023-03-25T10:25:37;99826.31;;;11.13;100.00
51781;BME280;37844;57.126;24.288;2023-03-25T10:28:27;99827.22;;;11.00;100.00
51781;BME280;37844;57.126;24.288;2023-03-25T10:31:12;99834.13;;;10.86;100.00
51781;BME280;37844;57.126;24.288;2023-03-25T10:34:03;99829.75;;;11.03;100.00
51781;BME280;37844;57.126;24.288;2023-03-25T10:36:51;99827.94;;;11.28;100.00
51781;BME280;37844;57.126;24.288;2023-03-25T10:39:38;99828.84;;;11.27;100.00
51781;BME280;37844;57.126;24.288;2023-03-25T10:42:34;99821.00;;;11.44;100.00
51781;BME280;37844;57.126;24.288;2023-03-25T10:45:21;99822.53;;;11.71;100.00
51781;BME280;37844;57.126;24.288;2023-03-25T10:48:09;99804.16;;;12.14;100.00
51781;BME280;37844;57.126;24.288;2023-03-25T10:51:13;99810.03;;;12.35;100.00
51781;BME280;37844;57.126;24.288;2023-03-25T10:53:58;99811.69;;;12.40;100.00
51781;BME280;37844;57.126;24.288;2023-03-25T10:56:44;99810.84;;;12.40;100.00
51781;BME280;37844;57.126;24.288;2023-03-25T10:59:33;99800.50;;;12.40;100.00
51781;BME280;37844;57.126;24.288;2023-03-25T11:02:23;99803.13;;;12.34;99.37
51781;BME280;37844;57.126;24.288;2023-03-25T11:05:09;99805.94;;;12.09;100.00
51781;BME280;37844;57.126;24.288;2023-03-25T11:07:56;99822.13;;;12.29;98.62
51781;BME280;37844;57.126;24.288;2023-03-25T11:10:46;99811.88;;;12.19;98.22
51781;BME280;37844;57.126;24.288;2023-03-25T11:13:30;99809.34;;;12.17;99.09
51781;BME280;37844;57.126;24.288;2023-03-25T11:16:14;99800.56;;;12.32;98.02
51781;BME280;37844;57.126;24.288;2023-03-25T11:19:02;99797.81;;;12.50;96.31
51781;BME280;37844;57.126;24.288;2023-03-25T11:21:47;99798.81;;;12.37;97.55
51781;BME280;37844;57.126;24.288;2023-03-25T11:24:32;99798.00;;;12.32;97.30
51781;BME280;37844;57.126;24.288;2023-03-25T11:27:18;99784.09;;;12.41;97.93
51781;BME280;37844;57.126;24.288;2023-03-25T11:30:05;99795.16;;;12.58;96.69
51781;BME280;37844;57.126;24.288;2023-03-25T11:33:02;99786.47;;;12.64;95.46
51781;BME280;37844;57.126;24.288;2023-03-25T11:35:46;99782.03;;;12.77;94.79
51781;BME280;37844;57.126;24.288;2023-03-25T11:38:31;99778.34;;;12.94;92.87
51781;BME280;37844;57.126;24.288;2023-03-25T11:41:17;99782.38;;;13.17;92.39
51781;BME280;37844;57.126;24.288;2023-03-25T11:44:04;99766.81;;;13.22;88.93
51781;BME280;37844;57.126;24.288;2023-03-25T11:46:49;99777.03;;;13.32;89.98
51781;BME280;37844;57.126;24.288;2023-03-25T11:49:35;99760.53;;;13.38;87.75
51781;BME280;37844;57.126;24.288;2023-03-25T11:52:23;99772.69;;;13.33;88.72
51781;BME280;37844;57.126;24.288;2023-03-25T11:55:27;99776.38;;;13.13;86.26
51781;BME280;37844;57.126;24.288;2023-03-25T11:58:17;99776.75;;;12.84;87.92
51781;BME280;37844;57.126;24.288;2023-03-25T12:03:46;99777.56;;;12.88;89.40
51781;BME280;37844;57.126;24.288;2023-03-25T12:06:30;99764.47;;;13.02;87.73
51781;BME280;37844;57.126;24.288;2023-03-25T12:09:14;99768.50;;;13.23;89.35
51781;BME280;37844;57.126;24.288;2023-03-25T12:12:01;99764.16;;;13.23;87.58
51781;BME280;37844;57.126;24.288;2023-03-25T12:14:51;99762.38;;;13.31;85.83
51781;BME280;37844;57.126;24.288;2023-03-25T12:17:41;99764.81;;;13.42;85.92
51781;BME280;37844;57.126;24.288;2023-03-25T12:24:08;99756.13;;;13.46;84.84
51781;BME280;37844;57.126;24.288;2023-03-25T12:27:17;99765.22;;;13.72;84.99
51781;BME280;37844;57.126;24.288;2023-03-25T12:41:41;99755.16;;;13.53;81.41
51781;BME280;37844;57.126;24.288;2023-03-25T12:47:23;99748.81;;;13.71;79.73
51781;BME280;37844;57.126;24.288;2023-03-25T12:52:54;99746.91;;;13.83;79.91
51781;BME280;37844;57.126;24.288;2023-03-25T12:55:55;99747.50;;;14.00;78.31
51781;BME280;37844;57.126;24.288;2023-03-25T13:10:16;99745.59;;;14.10;73.90
51781;BME280;37844;57.126;24.288;2023-03-25T13:12:58;99746.44;;;14.12;73.00
51781;BME280;37844;57.126;24.288;2023-03-25T13:15:44;99749.81;;;14.14;74.32
51781;BME280;37844;57.126;24.288;2023-03-25T13:18:31;99744.53;;;14.21;73.48
51781;BME280;37844;57.126;24.288;2023-03-25T13:21:27;99745.38;;;14.22;71.92
51781;BME280;37844;57.126;24.288;2023-03-25T13:24:14;99742.94;;;14.13;71.28
51781;BME280;37844;57.126;24.288;2023-03-25T13:26:59;99738.13;;;13.93;70.35
51781;BME280;37844;57.126;24.288;2023-03-25T13:29:53;99744.38;;;13.79;71.50
51781;BME280;37844;57.126;24.288;2023-03-25T13:32:40;99751.47;;;13.68;73.07
51781;BME280;37844;57.126;24.288;2023-03-25T13:35:54;99742.13;;;13.58;72.91
51781;BME280;37844;57.126;24.288;2023-03-25T13:38:53;99742.13;;;13.58;73.40
51781;BME280;37844;57.126;24.288;2023-03-25T13:41:42;99747.31;;;13.56;73.45
51781;BME280;37844;57.126;24.288;2023-03-25T13:44:32;99741.22;;;13.62;74.13
51781;BME280;37844;57.126;24.288;2023-03-25T13:50:07;99741.63;;;13.34;73.57
51781;BME280;37844;57.126;24.288;2023-03-25T13:52:59;99741.56;;;13.38;74.08
51781;BME280;37844;57.126;24.288;2023-03-25T13:55:48;99740.78;;;13.31;73.44
51781;BME280;37844;57.126;24.288;2023-03-25T14:04:41;99739.97;;;13.26;74.83
51781;BME280;37844;57.126;24.288;2023-03-25T14:07:36;99740.03;;;13.21;72.39
51781;BME280;37844;57.126;24.288;2023-03-25T14:13:38;99731.44;;;13.21;72.18
51781;BME280;37844;57.126;24.288;2023-03-25T14:16:24;99733.16;;;13.20;72.39
51781;BME280;37844;57.126;24.288;2023-03-25T14:19:10;99737.63;;;13.10;71.71
51781;BME280;37844;57.126;24.288;2023-03-25T14:21:55;99730.94;;;12.94;71.95
51781;BME280;37844;57.126;24.288;2023-03-25T14:24:40;99735.34;;;12.86;73.91
51781;BME280;37844;57.126;24.288;2023-03-25T14:27:25;99723.28;;;12.85;73.56
51781;BME280;37844;57.126;24.288;2023-03-25T14:30:22;99732.78;;;12.84;74.16
51781;BME280;37844;57.126;24.288;2023-03-25T14:33:15;99733.84;;;12.69;73.65
51781;BME280;37844;57.126;24.288;2023-03-25T14:36:01;99733.84;;;12.69;75.31
51781;BME280;37844;57.126;24.288;2023-03-25T14:38:49;99734.66;;;12.73;76.14
51781;BME280;37844;57.126;24.288;2023-03-25T14:44:46;99726.09;;;12.69;75.58
51781;BME280;37844;57.126;24.288;2023-03-25T14:47:37;99723.56;;;12.65;75.03
51781;BME280;37844;57.126;24.288;2023-03-25T14:50:33;99721.75;;;12.70;75.59
51781;BME280;37844;57.126;24.288;2023-03-25T14:53:17;99719.13;;;12.73;75.63
51781;BME280;37844;57.126;24.288;2023-03-25T14:56:04;99721.03;;;12.59;75.21
51781;BME280;37844;57.126;24.288;2023-03-25T14:58:52;99722.00;;;12.48;73.62
51781;BME280;37844;57.126;24.288;2023-03-25T15:01:37;99721.22;;;12.43;73.22
51781;BME280;37844;57.126;24.288;2023-03-25T15:04:32;99725.53;;;12.41;73.34
51781;BME280;37844;57.126;24.288;2023-03-25T15:07:17;99720.38;;;12.41;73.38
51781;BME280;37844;57.126;24.288;2023-03-25T15:10:02;99731.56;;;12.43;74.70
51781;BME280;37844;57.126;24.288;2023-03-25T15:12:49;99721.28;;;12.37;74.98
51781;BME280;37844;57.126;24.288;2023-03-25T15:21:14;99729.16;;;12.25;75.87
51781;BME280;37844;57.126;24.288;2023-03-25T15:24:01;99725.78;;;12.20;75.88
51781;BME280;37844;57.126;24.288;2023-03-25T15:26:47;99726.66;;;12.16;77.25
51781;BME280;37844;57.126;24.288;2023-03-25T15:29:42;99724.94;;;12.18;76.60
51781;BME280;37844;57.126;24.288;2023-03-25T15:35:43;99725.81;;;12.12;76.78
51781;BME280;37844;57.126;24.288;2023-03-25T15:50:10;99730.91;;;12.23;79.46
51781;BME280;37844;57.126;24.288;2023-03-25T16:01:34;99745.16;;;11.62;85.39
51781;BME280;37844;57.126;24.288;2023-03-25T16:07:13;99745.38;;;11.34;90.19
51781;BME280;37844;57.126;24.288;2023-03-25T16:10:20;99743.66;;;11.30;91.05
51781;BME280;37844;57.126;24.288;2023-03-25T16:13:10;99746.31;;;11.18;92.66
51781;BME280;37844;57.126;24.288;2023-03-25T16:15:55;99740.31;;;11.16;93.41
51781;BME280;37844;57.126;24.288;2023-03-25T16:18:40;99740.25;;;11.22;95.01
51781;BME280;37844;57.126;24.288;2023-03-25T16:21:28;99740.25;;;11.23;93.60
51781;BME280;37844;57.126;24.288;2023-03-25T16:24:22;99735.19;;;11.11;95.70
51781;BME280;37844;57.126;24.288;2023-03-25T16:27:08;99736.06;;;11.06;95.89
51781;BME280;37844;57.126;24.288;2023-03-25T16:29:53;99729.19;;;11.06;94.33
51781;BME280;37844;57.126;24.288;2023-03-25T16:32:37;99730.09;;;10.91;95.40
51781;BME280;37844;57.126;24.288;2023-03-25T16:35:22;99721.53;;;10.86;97.20
51781;BME280;37844;57.126;24.288;2023-03-25T16:38:07;99734.44;;;10.81;98.14
51781;BME280;37844;57.126;24.288;2023-03-25T16:40:59;99726.75;;;10.78;98.88
51781;BME280;37844;57.126;24.288;2023-03-25T16:43:44;99720.75;;;10.75;98.62
51781;BME280;37844;57.126;24.288;2023-03-25T16:46:28;99725.91;;;10.73;98.93
51781;BME280;37844;57.126;24.288;2023-03-25T16:49:55;99726.75;;;10.75;99.57
51781;BME280;37844;57.126;24.288;2023-03-25T16:52:27;99717.38;;;10.57;100.00
51781;BME280;37844;57.126;24.288;2023-03-25T16:55:13;99714.84;;;10.44;100.00
51781;BME280;37844;57.126;24.288;2023-03-25T16:58:12;99720.88;;;10.39;100.00